AQQ10 IFIS: Internet Flight Information System
logo dgac
Martes 06 de Diciembre del 2022
Buscar por aerodromo o helipuerto
Ingrese nombre de aeródromo, localidad o designador OACI:
METAR del 06-12-2022 a las 07:00 UTC
Para mayor información visite www.meteochile.cl
METAR SCFA 060700Z 31003KT CAVOK 15/11 Q1014 NOSIG
Viento: dirección 310 grados, velocidad 3 nudos
Visibilidad: 10 km o más,
    sin nubes bajo los 5.000 pies o bajo del MSA (Mínimo de Seguridad del Aeródromo),
    sin cumulonimbus, y sin fenómenos de tiempo significativo en el aeródromo o alrededores
Temperatura: 15 °C
Rocío: 11 °C
Humedad_relativa: 77%
Presión: 1014 hPa
No se esperan cambios significativos en las próximas 2 horas
METAR del 06-12-2022 a las 06:00 UTC
Para mayor información visite www.meteochile.cl
METAR SCFA 060600Z 06002KT CAVOK 16/12 Q1015 NOSIG
Viento: dirección 060 grados, velocidad 2 nudos
Visibilidad: 10 km o más,
    sin nubes bajo los 5.000 pies o bajo del MSA (Mínimo de Seguridad del Aeródromo),
    sin cumulonimbus, y sin fenómenos de tiempo significativo en el aeródromo o alrededores
Temperatura: 16 °C
Rocío: 12 °C
Humedad_relativa: 77%
Presión: 1015 hPa
No se esperan cambios significativos en las próximas 2 horas
METAR del 06-12-2022 a las 05:00 UTC
Para mayor información visite www.meteochile.cl
METAR SCFA 060500Z 05003KT CAVOK 16/12 Q1015 NOSIG
Viento: dirección 050 grados, velocidad 3 nudos
Visibilidad: 10 km o más,
    sin nubes bajo los 5.000 pies o bajo del MSA (Mínimo de Seguridad del Aeródromo),
    sin cumulonimbus, y sin fenómenos de tiempo significativo en el aeródromo o alrededores
Temperatura: 16 °C
Rocío: 12 °C
Humedad_relativa: 77%
Presión: 1015 hPa
No se esperan cambios significativos en las próximas 2 horas
METAR del 06-12-2022 a las 04:00 UTC
Para mayor información visite www.meteochile.cl
METAR SCFA 060400Z 14001KT CAVOK 16/13 Q1015 NOSIG
Viento: dirección 140 grados, velocidad 1 nudos
Visibilidad: 10 km o más,
    sin nubes bajo los 5.000 pies o bajo del MSA (Mínimo de Seguridad del Aeródromo),
    sin cumulonimbus, y sin fenómenos de tiempo significativo en el aeródromo o alrededores
Temperatura: 16 °C
Rocío: 13 °C
Humedad_relativa: 82%
Presión: 1015 hPa
No se esperan cambios significativos en las próximas 2 horas
METAR del 06-12-2022 a las 03:00 UTC
Para mayor información visite www.meteochile.cl
METAR SCFA 060300Z 18004KT 9999 FEW018 17/13 Q1015 NOSIG
Viento: dirección 180 grados, velocidad 4 nudos
Visibilidad: 10 km o más
Nubes: Escasa nubosidad a 1800 pies sobre el nivel del aeródromo
Temperatura: 17 °C
Rocío: 13 °C
Humedad_relativa: 77%
Presión: 1015 hPa
No se esperan cambios significativos en las próximas 2 horas
METAR del 06-12-2022 a las 02:00 UTC
Para mayor información visite www.meteochile.cl
METAR SCFA 060200Z 18005KT CAVOK 17/13 Q1014 NOSIG
Viento: dirección 180 grados, velocidad 5 nudos
Visibilidad: 10 km o más,
    sin nubes bajo los 5.000 pies o bajo del MSA (Mínimo de Seguridad del Aeródromo),
    sin cumulonimbus, y sin fenómenos de tiempo significativo en el aeródromo o alrededores
Temperatura: 17 °C
Rocío: 13 °C
Humedad_relativa: 77%
Presión: 1014 hPa
No se esperan cambios significativos en las próximas 2 horas
METAR del 06-12-2022 a las 01:00 UTC
Para mayor información visite www.meteochile.cl
METAR SCFA 060100Z 19007KT CAVOK 17/13 Q1013 NOSIG
Viento: dirección 190 grados, velocidad 7 nudos
Visibilidad: 10 km o más,
    sin nubes bajo los 5.000 pies o bajo del MSA (Mínimo de Seguridad del Aeródromo),
    sin cumulonimbus, y sin fenómenos de tiempo significativo en el aeródromo o alrededores
Temperatura: 17 °C
Rocío: 13 °C
Humedad_relativa: 77%
Presión: 1013 hPa
No se esperan cambios significativos en las próximas 2 horas
METAR del 06-12-2022 a las 00:00 UTC
Para mayor información visite www.meteochile.cl
METAR SCFA 060000Z 18008KT CAVOK 17/13 Q1013 NOSIG
Viento: dirección 180 grados, velocidad 8 nudos
Visibilidad: 10 km o más,
    sin nubes bajo los 5.000 pies o bajo del MSA (Mínimo de Seguridad del Aeródromo),
    sin cumulonimbus, y sin fenómenos de tiempo significativo en el aeródromo o alrededores
Temperatura: 17 °C
Rocío: 13 °C
Humedad_relativa: 77%
Presión: 1013 hPa
No se esperan cambios significativos en las próximas 2 horas
METAR del 05-12-2022 a las 23:00 UTC
Para mayor información visite www.meteochile.cl
METAR SCFA 052300Z 20011KT 9999 FEW023 18/13 Q1012 NOSIG
Viento: dirección 200 grados, velocidad 11 nudos
Visibilidad: 10 km o más
Nubes: Escasa nubosidad a 2300 pies sobre el nivel del aeródromo
Temperatura: 18 °C
Rocío: 13 °C
Humedad_relativa: 73%
Presión: 1012 hPa
No se esperan cambios significativos en las próximas 2 horas
METAR del 05-12-2022 a las 22:00 UTC
Para mayor información visite www.meteochile.cl
METAR SCFA 052200Z 20013KT 9999 FEW023 18/12 Q1011 NOSIG
Viento: dirección 200 grados, velocidad 13 nudos
Visibilidad: 10 km o más
Nubes: Escasa nubosidad a 2300 pies sobre el nivel del aeródromo
Temperatura: 18 °C
Rocío: 12 °C
Humedad_relativa: 68%
Presión: 1011 hPa
No se esperan cambios significativos en las próximas 2 horas